Flight Track Log - Related Links

Times and Time Zones

All times are in EDT time to prevent confusion due to time zone crossing. See the N885FT flight status page for this flight to view local times or setup timezone preferences in your user account.

Time Position Orientation Groundspeed Altitude Reporting Facility
EDT Latitude Longitude Course Direction KTS MPH feet Rate Location/Type
Wed 08:49:04 PM 29.1119 -82.1319 148° Southeast 140 161 2,100  Level Jacksonville Center
Wed 08:50:05 PM 29.0992 -82.0942 111° Southeast 136 157 2,100 339 Level Jacksonville Center
Wed 08:52:01 PM 29.0500 -82.0500 142° Southeast 118 136 3,100 545 Climbing Orlando TRACON
Wed 08:53:01 PM 29.0333 -82.0333 139° Southeast 110 127 3,700 700 Climbing Orlando TRACON
Wed 08:54:00 PM 29.0278 -82.0961 148° Southeast  Level FlightAware Approximate
Wed 08:54:01 PM 29.0000 -82.0167 156° South 115 132 4,500  Level Orlando TRACON
Wed 08:55:01 PM 28.9667 -82.0000 156° South 121 139 5,000 300 Climbing Orlando TRACON
Wed 08:56:01 PM 28.9333 -81.9667 139° Southeast 139 160 5,100 48 Climbing Orlando TRACON
Wed 08:57:07 PM 28.9000 -81.9500 156° South 154 177 5,100  Level Orlando TRACON
Wed 08:58:07 PM 28.8500 -81.9333 164° South 154 177 5,100  Level Orlando TRACON
Wed 08:59:01 PM 28.8167 -81.9167 156° South 153 176 5,100  Level Orlando TRACON
Wed 09:00:01 PM 28.7833 -81.8833 139° Southeast 154 177 5,100 -50 Level Orlando TRACON
Wed 09:01:01 PM 28.7500 -81.8667 156° South 154 177 5,000  Descending Orlando TRACON
Wed 09:02:01 PM 28.7000 -81.8333 150° Southeast 153 176 5,100 -50 Climbing Orlando TRACON
Wed 09:03:01 PM 28.6667 -81.8167 156° South 152 175 4,900 -316 Descending Orlando TRACON
Wed 09:03:55 PM 28.6333 -81.8000 156° South 162 186 4,500 -522 Descending Orlando TRACON
Wed 09:04:56 PM 28.6000 -81.7667 139° Southeast 168 193 3,900 -496 Descending Orlando TRACON
Wed 09:05:56 PM 28.5500 -81.7500 164° South 164 189 3,500 -432 Descending Orlando TRACON
Wed 09:07:01 PM 28.5167 -81.7167 139° Southeast 155 178 3,000 -192 Descending Orlando TRACON
Wed 09:08:01 PM 28.4667 -81.7000 164° South 143 165 3,100  Climbing Orlando TRACON
Wed 09:08:56 PM 28.4333 -81.6833 156° South 141 162 3,000 -50 Descending Orlando TRACON
Wed 09:10:02 PM 28.4333 -81.6500 90° East 142 163 3,000  Level Orlando TRACON
Wed 09:11:02 PM 28.4333 -81.6000 90° East 142 163 3,000  Level Orlando TRACON
Wed 09:12:02 PM 28.4500 -81.5667 60° Northeast 143 165 3,000 50 Level Orlando TRACON
Wed 09:13:02 PM 28.4667 -81.5167 69° East 144 166 3,100 50 Climbing Orlando TRACON
Wed 09:14:02 PM 28.4667 -81.4833 90° East 142 163 3,100 -48 Level Orlando TRACON
Wed 09:15:08 PM 28.4667 -81.4333 90° East 142 163 3,000  Descending Orlando TRACON
Wed 09:16:14 PM 28.4833 -81.3833 69° East 141 162 3,100 50 Climbing Orlando TRACON
Wed 09:17:08 PM 28.4833 -81.3333 90° East 140 161 3,100  Level Orlando TRACON
Wed 09:18:08 PM 28.4833 -81.3000 90° East 138 159 3,100 -48 Level Orlando TRACON
Wed 09:19:14 PM 28.4667 -81.2500 111° Southeast 137 158 3,000  Descending Orlando TRACON
Wed 09:20:14 PM 28.4667 -81.2000 90° East 136 157 3,100  Climbing Orlando TRACON
Wed 09:21:14 PM 28.4500 -81.1667 120° Southeast 136 157 3,000 -53 Descending Orlando TRACON
Wed 09:22:08 PM 28.4500 -81.1167 90° East 134 154 3,000 48 Level Orlando TRACON
Wed 09:23:20 PM 28.4333 -81.0833 120° Southeast 136 157 3,100  Climbing Orlando TRACON
Wed 09:24:20 PM 28.4333 -81.0333 90° East 133 153 3,000 -52 Descending Orlando TRACON
Wed 09:25:15 PM 28.4167 -81.0000 120° Southeast 133 153 3,000  Level Orlando TRACON
Wed 09:26:15 PM 28.4000 -80.9667 120° Southeast 135 155 3,000  Level Orlando TRACON
Wed 09:27:09 PM 28.3667 -80.9500 156° South 133 153 3,000 53 Level Orlando TRACON
Wed 09:28:09 PM 28.3333 -80.9333 156° South 132 152 3,100  Climbing Orlando TRACON
Wed 09:29:09 PM 28.3000 -80.9000 139° Southeast 135 155 3,000 -50 Descending Orlando TRACON
Wed 09:30:09 PM 28.2833 -80.8833 139° Southeast 132 152 3,000  Level Orlando TRACON
Wed 09:31:09 PM 28.2500 -80.8667 156° South 133 153 3,000  Level Orlando TRACON
Wed 09:32:09 PM 28.2000 -80.8500 164° South 139 160 3,000  Level Orlando TRACON
Wed 09:33:09 PM 28.1667 -80.8500 180° South 136 157 3,000 -200 Level Orlando TRACON
Wed 09:34:09 PM 28.1333 -80.8500 180° South 146 168 2,600 -450 Descending Orlando TRACON
Wed 09:35:09 PM 28.1167 -80.8000 111° Southeast 149 171 2,100 -300 Descending Orlando TRACON
Wed 09:36:09 PM 28.1000 -80.7667 120° Southeast 136 157 2,000 -95 Descending Orlando TRACON
Wed 09:37:15 PM 28.1000 -80.7167 90° East 127 146 1,900 -600 Descending Orlando TRACON
Wed 09:38:09 PM 28.1000 -80.7000 90° East 89 102 800 -1,222 Descending Orlando TRACON
Wed 09:40:00 PM 28.1028 -80.6453 132° Southeast  Level Estimated
Wed 09:47:00 PM 28.1028 -80.6453 132° Southeast  Level Estimated
Wed 09:48:00 PM 28.1028 -80.6453 105° East  Level Estimated
Wed 09:49:00 PM 28.1028 -80.6453 105° East  Level Estimated
Wed 09:50:00 PM 28.1028 -80.6453 132° Southeast  Level Estimated

Login

Don't have an account? Register now (free) for customized features, flight alerts, and more!